This is the latest recevied weather packets stored in our database for station/object W5COG. If no packets are shown the sender has not sent any weather packets the latest 1 day(s).
| Time | Temp. | Humidity | Pressure | Rain* | Wind** | Luminosity | Snow |
|---|---|---|---|---|---|---|---|
| 1778082628 | 14.44° C | 53% | 1017.9 hPa | 0 mm | - | 629 W/m² | - |
| 1778079928 | 12.22° C | 61% | 1017 hPa | 0 mm | - | 613 W/m² | - |
| 1778079628 | 12.22° C | 62% | 1017 hPa | 0 mm | - | 465 W/m² | - |
| 1778079328 | 11.67° C | 63% | 1016.7 hPa | 0 mm | - | 460 W/m² | - |
| 1778076028 | 10° C | 69% | 1016.6 hPa | 0 mm | - | 230 W/m² | - |
| 1778073928 | 9.44° C | 72% | 1017.1 hPa | 0 mm | - | 143 W/m² | - |
| 1778072728 | 9.44° C | 73% | 1017 hPa | 0 mm | - | 142 W/m² | - |
| 1778072428 | 9.44° C | 74% | 1016.6 hPa | 0 mm | - | 129 W/m² | - |
| 1778072128 | 9.44° C | 74% | 1016.7 hPa | 0 mm | - | 99 W/m² | - |
| 1778071828 | 9.44° C | 75% | 1016.8 hPa | 0 mm | - | 111 W/m² | - |
| 1778070328 | 8.89° C | 75% | 1016.3 hPa | 0 mm | - | 67 W/m² | - |
| 1778070028 | 8.89° C | 76% | 1016.2 hPa | 0 mm | - | 65 W/m² | - |
| 1778069728 | 8.89° C | 77% | 1016.2 hPa | 0 mm | - | 54 W/m² | - |
| 1778069128 | 8.89° C | 79% | 1016.1 hPa | 0 mm | - | 33 W/m² | - |
| 1778068528 | 8.89° C | 80% | 1016.1 hPa | 0 mm | - | 29 W/m² | - |
| 1778067928 | 8.89° C | 79% | 1015.9 hPa | 0 mm | - | 11 W/m² | - |
| 1778067628 | 8.89° C | 78% | 1016 hPa | 0 mm | - | 6 W/m² | - |
| 1778067328 | 8.89° C | 77% | 1016.3 hPa | 0 mm | - | 3 W/m² | - |
| 1778066728 | 8.89° C | 77% | 1016.4 hPa | 0 mm | - | 1 W/m² | - |
| 1778066428 | 8.89° C | 77% | 1016.5 hPa | 0 mm | - | 0 W/m² | - |
| 1778065528 | 8.89° C | 76% | 1016.3 hPa | 0 mm | - | 0 W/m² | - |
| 1778065228 | 8.89° C | 76% | 1016.3 hPa | 0 mm | - | 0 W/m² | - |
| 1778064928 | 8.89° C | 76% | 1016.2 hPa | 0 mm | - | 0 W/m² | - |
| 1778064628 | 8.89° C | 76% | 1016.2 hPa | 0 mm | - | 0 W/m² | - |
| 1778063128 | 8.89° C | 74% | 1015.5 hPa | 0 mm | - | 0 W/m² | - |
* Rain latest hour (hover to see other rain measurements)
** Current wind speed in m/s (hover to see current wind gust speed)